Time;durP1;ratioP1;P1;durP2;ratioP2;P2;SDS_P1;SDS_P2;PMS_P1;PMS_P2;Temp;Humidity;BMP_temperature;BMP_pressure;BME280_temperature;BME280_humidity;BME280_pressure;Samples;Min_cycle;Max_cycle;Signal;HPM_P1;HPM_P2
2021/09/05 00:00:24;;;;;;;8.15;5.30;;;16.30;77.80;;;;;;2031335;29;20045;-94
2021/09/05 00:01:44;;;;;;;7.88;5.18;;;16.20;77.70;;;;;;2028986;29;20059;-94
2021/09/05 00:03:04;;;;;;;7.60;5.18;;;16.20;77.70;;;;;;2020920;29;20030;-91
2021/09/05 00:04:24;;;;;;;7.55;4.72;;;16.20;77.70;;;;;;2013722;29;20094;-92
2021/09/05 00:05:43;;;;;;;8.15;4.90;;;16.20;77.70;;;;;;2034041;29;20044;-93
2021/09/05 00:07:02;;;;;;;7.93;5.25;;;16.20;77.80;;;;;;2028342;29;20060;-91
2021/09/05 00:08:22;;;;;;;7.37;4.77;;;16.20;77.70;;;;;;2030191;29;20032;-92
2021/09/05 00:09:42;;;;;;;8.57;5.18;;;16.20;77.80;;;;;;2031221;29;20044;-92
2021/09/05 00:11:02;;;;;;;8.07;4.70;;;16.20;77.80;;;;;;2027792;29;20033;-93
2021/09/05 00:12:22;;;;;;;9.88;5.00;;;16.10;77.70;;;;;;2037156;29;20040;-92
2021/09/05 00:13:42;;;;;;;;;;;16.10;77.70;;;;;;2035738;29;20024;-95
2021/09/05 00:15:01;;;;;;;7.00;4.60;;;16.10;77.70;;;;;;2033127;29;19923;-94
2021/09/05 00:16:20;;;;;;;7.90;4.47;;;16.10;77.70;;;;;;2023773;29;20041;-95
2021/09/05 00:17:40;;;;;;;7.45;4.47;;;16.10;77.70;;;;;;2028043;29;20051;-94
2021/09/05 00:18:59;;;;;;;8.05;5.13;;;16.10;77.70;;;;;;2022943;29;20041;-94
2021/09/05 00:20:18;;;;;;;8.23;5.43;;;16.10;77.70;;;;;;2026501;29;20036;-94
2021/09/05 00:21:38;;;;;;;7.72;4.78;;;16.10;77.70;;;;;;2029937;29;20494;-93
2021/09/05 00:22:57;;;;;;;8.45;5.00;;;16.10;77.70;;;;;;2029159;29;20115;-94
2021/09/05 00:24:16;;;;;;;8.40;5.05;;;16.10;77.80;;;;;;2022599;29;20036;-94
2021/09/05 00:25:36;;;;;;;7.88;4.93;;;16.00;77.70;;;;;;2012475;29;20120;-94
2021/09/05 00:26:55;;;;;;;8.27;5.07;;;16.10;77.80;;;;;;2010237;29;20045;-95
2021/09/05 00:28:14;;;;;;;7.65;4.43;;;16.10;77.80;;;;;;2027210;29;20048;-95
2021/09/05 00:29:34;;;;;;;8.35;4.97;;;16.10;78.50;;;;;;2018228;29;20679;-95
2021/09/05 00:30:53;;;;;;;9.50;5.25;;;16.00;77.80;;;;;;2020567;29;20029;-94
2021/09/05 00:32:12;;;;;;;7.85;4.85;;;16.00;77.80;;;;;;2033907;29;20499;-95
2021/09/05 00:33:32;;;;;;;8.32;4.65;;;16.00;77.80;;;;;;2027111;29;20065;-93
2021/09/05 00:34:48;;;;;;;7.43;4.72;;;16.00;77.90;;;;;;2031593;29;20656;-93
2021/09/05 00:36:07;;;;;;;9.07;5.13;;;16.00;77.90;;;;;;2023706;29;20741;-95
2021/09/05 00:37:26;;;;;;;8.48;4.88;;;16.00;77.90;;;;;;2024633;29;20040;-95
2021/09/05 00:38:46;;;;;;;8.45;5.18;;;16.00;78.00;;;;;;2024346;29;20028;-94
2021/09/05 00:40:06;;;;;;;9.55;5.32;;;16.00;78.00;;;;;;2012161;29;20037;-95
2021/09/05 00:41:25;;;;;;;9.35;5.35;;;16.00;78.00;;;;;;2019452;29;20080;-95
2021/09/05 00:42:45;;;;;;;7.18;4.80;;;15.90;78.00;;;;;;2011487;29;20041;-95
2021/09/05 00:44:06;;;;;;;10.50;5.50;;;15.90;78.00;;;;;;2023799;29;20434;-96
2021/09/05 00:45:26;;;;;;;8.40;5.10;;;15.90;78.00;;;;;;2023228;29;20060;-95
2021/09/05 00:46:45;;;;;;;9.60;5.45;;;15.90;78.00;;;;;;2019011;29;20036;-95
2021/09/05 00:48:05;;;;;;;9.30;5.07;;;15.90;78.10;;;;;;2014082;29;20383;-93
2021/09/05 00:49:24;;;;;;;8.52;5.05;;;15.90;78.10;;;;;;2026028;29;20048;-92
2021/09/05 00:50:44;;;;;;;9.50;5.43;;;15.90;78.10;;;;;;2026051;29;20045;-93
2021/09/05 00:52:04;;;;;;;7.28;5.28;;;15.80;78.00;;;;;;2022980;29;20032;-92
2021/09/05 00:53:23;;;;;;;7.47;4.75;;;15.90;78.10;;;;;;2023024;29;20068;-93
2021/09/05 00:54:43;;;;;;;7.45;5.22;;;15.80;78.10;;;;;;2019137;29;20040;-92
2021/09/05 00:56:03;;;;;;;9.30;4.93;;;15.80;78.10;;;;;;2019596;29;20033;-91
2021/09/05 00:57:23;;;;;;;10.60;5.88;;;15.80;78.10;;;;;;2010492;29;20136;-95
2021/09/05 00:58:44;;;;;;;7.10;4.85;;;15.80;78.10;;;;;;2023297;29;20115;-95
2021/09/05 01:00:04;;;;;;;8.38;5.43;;;15.80;78.10;;;;;;2025003;29;20045;-94
2021/09/05 01:01:24;;;;;;;8.40;5.00;;;15.80;78.20;;;;;;2018820;29;20535;-95
2021/09/05 01:02:43;;;;;;;9.35;5.35;;;15.80;78.20;;;;;;2019313;29;20040;-95
2021/09/05 01:04:04;;;;;;;8.75;5.05;;;15.80;78.20;;;;;;2010498;29;20037;-95
2021/09/05 01:05:24;;;;;;;9.07;4.95;;;15.80;78.30;;;;;;2022710;29;20063;-95
2021/09/05 01:06:43;;;;;;;8.40;5.43;;;15.70;78.20;;;;;;2023523;29;20044;-94
2021/09/05 01:08:03;;;;;;;10.20;5.88;;;15.70;78.30;;;;;;2026650;29;20036;-94
2021/09/05 01:09:23;;;;;;;7.75;4.85;;;15.70;78.30;;;;;;2029422;29;20044;-94
2021/09/05 01:10:42;;;;;;;9.52;5.70;;;15.70;78.40;;;;;;2025306;29;20108;-95
2021/09/05 01:12:03;;;;;;;8.35;4.60;;;15.70;78.40;;;;;;2030083;29;20028;-96
2021/09/05 01:13:23;;;;;;;8.57;5.30;;;15.70;78.40;;;;;;2024431;29;20056;-92
2021/09/05 01:14:43;;;;;;;9.13;5.25;;;15.60;78.40;;;;;;2019987;29;20048;-91
2021/09/05 01:16:02;;;;;;;9.10;5.32;;;15.70;78.40;;;;;;2021735;29;20054;-92
2021/09/05 01:17:21;;;;;;;8.45;5.22;;;15.70;78.40;;;;;;2022449;29;20045;-91
2021/09/05 01:18:40;;;;;;;9.30;5.10;;;15.60;78.50;;;;;;2018357;29;20092;-92
2021/09/05 01:20:00;;;;;;;8.05;4.70;;;15.60;78.40;;;;;;2022438;29;20460;-92
2021/09/05 01:21:20;;;;;;;8.52;4.95;;;15.60;78.50;;;;;;2027377;29;20036;-93
2021/09/05 01:22:40;;;;;;;8.23;4.85;;;15.60;78.40;;;;;;2030999;29;20032;-92
2021/09/05 01:24:00;;;;;;;8.35;5.35;;;15.60;78.40;;;;;;2022193;29;20036;-92
2021/09/05 01:25:19;;;;;;;;;;;15.60;78.40;;;;;;2011760;29;20045;-92
2021/09/05 01:26:42;;;;;;;7.20;4.43;;;15.60;78.40;;;;;;2010978;29;19915;-93
2021/09/05 01:28:02;;;;;;;7.07;4.68;;;15.60;78.40;;;;;;2018717;29;20036;-93
2021/09/05 01:29:21;;;;;;;8.57;4.90;;;15.60;78.40;;;;;;2017129;29;20060;-94
2021/09/05 01:30:41;;;;;;;8.85;5.10;;;15.50;78.40;;;;;;2012934;29;20065;-93
2021/09/05 01:32:00;;;;;;;7.35;4.68;;;15.50;78.40;;;;;;2023782;29;20035;-94
2021/09/05 01:33:20;;;;;;;8.90;5.03;;;15.50;78.50;;;;;;2031176;29;20040;-95
2021/09/05 01:34:39;;;;;;;7.78;5.18;;;15.50;78.50;;;;;;2021848;29;20127;-94
2021/09/05 01:35:58;;;;;;;8.57;5.00;;;15.50;78.50;;;;;;2019577;29;20088;-94
2021/09/05 01:37:17;;;;;;;6.70;4.40;;;15.50;78.50;;;;;;2024644;29;20085;-94
2021/09/05 01:38:37;;;;;;;9.27;4.57;;;15.50;78.50;;;;;;2014943;29;20038;-94
2021/09/05 01:39:57;;;;;;;7.68;5.13;;;15.50;78.50;;;;;;2008797;29;20041;-94
2021/09/05 01:41:15;;;;;;;8.10;5.10;;;15.50;78.50;;;;;;2023484;29;20067;-94
2021/09/05 01:42:35;;;;;;;6.95;4.25;;;15.50;78.50;;;;;;2020086;29;20078;-94
2021/09/05 01:44:02;;;;;;;7.60;4.78;;;15.50;78.50;;;;;;2020281;29;20112;-95
2021/09/05 01:45:22;;;;;;;7.35;4.38;;;15.50;78.60;;;;;;2023083;29;20036;-93
2021/09/05 01:46:41;;;;;;;7.65;4.63;;;15.50;78.50;;;;;;2016259;29;20057;-93
2021/09/05 01:48:01;;;;;;;9.25;4.90;;;15.50;78.50;;;;;;2023935;29;20044;-93
2021/09/05 01:49:20;;;;;;;7.70;4.45;;;15.50;78.60;;;;;;2022766;29;20041;-94
2021/09/05 01:50:39;;;;;;;8.35;4.85;;;15.40;78.50;;;;;;2027771;29;20032;-93
2021/09/05 01:51:59;;;;;;;8.60;5.00;;;15.40;78.50;;;;;;2013526;29;20090;-93
2021/09/05 01:53:18;;;;;;;8.52;4.60;;;15.40;78.50;;;;;;2012187;29;20037;-95
2021/09/05 01:54:37;;;;;;;7.65;4.85;;;15.50;78.60;;;;;;2016006;29;20045;-93
2021/09/05 01:55:57;;;;;;;7.53;4.80;;;15.40;78.50;;;;;;2026249;29;20084;-94
2021/09/05 01:57:16;;;;;;;7.10;4.60;;;15.40;79.00;;;;;;2018339;29;20037;-94
2021/09/05 01:58:35;;;;;;;7.10;4.55;;;15.40;78.60;;;;;;2020543;29;20048;-94
2021/09/05 01:59:55;;;;;;;6.82;4.60;;;15.40;78.60;;;;;;2028844;29;20177;-94
2021/09/05 02:01:15;;;;;;;7.75;4.55;;;15.40;78.60;;;;;;2030006;29;20028;-94
2021/09/05 02:02:34;;;;;;;6.68;4.60;;;15.40;78.60;;;;;;2022255;29;20041;-93
2021/09/05 02:03:54;;;;;;;7.32;4.32;;;15.40;78.60;;;;;;2027386;29;20043;-93
2021/09/05 02:05:13;;;;;;;6.80;4.20;;;15.40;78.70;;;;;;2030494;29;20024;-93
2021/09/05 02:06:33;;;;;;;6.50;4.22;;;15.40;78.70;;;;;;2026621;29;20048;-94
2021/09/05 02:07:52;;;;;;;7.25;4.35;;;15.30;78.70;;;;;;2022885;29;20431;-95
2021/09/05 02:09:12;;;;;;;7.13;4.50;;;15.30;78.70;;;;;;2026698;29;20044;-95
2021/09/05 02:10:31;;;;;;;8.27;4.78;;;15.30;78.80;;;;;;2030073;29;20070;-94
2021/09/05 02:11:52;;;;;;;6.88;4.30;;;15.30;78.80;;;;;;2022583;29;20048;-94
2021/09/05 02:13:11;;;;;;;7.03;4.32;;;15.30;78.80;;;;;;2029715;29;20040;-94
2021/09/05 02:14:31;;;;;;;7.38;4.25;;;15.30;78.80;;;;;;2015626;29;20113;-95
2021/09/05 02:15:51;;;;;;;7.32;4.55;;;15.30;78.80;;;;;;2012158;29;20037;-93
2021/09/05 02:17:11;;;;;;;;;;;15.30;78.80;;;;;;2013619;29;20037;-95
2021/09/05 02:18:30;;;;;;;7.25;3.72;;;15.30;78.80;;;;;;2019154;29;19927;-94
2021/09/05 02:19:49;;;;;;;7.43;4.10;;;15.30;78.80;;;;;;2023115;29;20041;-94
2021/09/05 02:21:09;;;;;;;7.80;4.18;;;15.20;78.80;;;;;;2028123;29;20043;-94
2021/09/05 02:22:28;;;;;;;8.85;4.82;;;15.20;78.80;;;;;;2025275;29;20703;-94
2021/09/05 02:23:47;;;;;;;7.35;4.40;;;15.20;78.80;;;;;;2025865;29;20486;-95
2021/09/05 02:25:07;;;;;;;6.82;4.10;;;15.20;78.90;;;;;;2016424;29;20216;-93
2021/09/05 02:26:27;;;;;;;8.52;4.80;;;15.20;78.90;;;;;;2018031;29;20041;-94
2021/09/05 02:27:46;;;;;;;7.45;4.63;;;15.20;79.00;;;;;;2026896;29;20577;-94
2021/09/05 02:29:06;;;;;;;7.18;4.35;;;15.20;79.00;;;;;;2016359;29;20034;-94
2021/09/05 02:30:25;;;;;;;7.57;4.30;;;15.20;79.00;;;;;;2027095;29;20044;-94
2021/09/05 02:31:44;;;;;;;8.98;4.20;;;15.20;79.00;;;;;;2016685;29;20041;-94
2021/09/05 02:33:04;;;;;;;7.25;4.20;;;15.10;79.00;;;;;;2026191;29;20071;-93
2021/09/05 02:34:23;;;;;;;6.20;4.28;;;15.10;79.00;;;;;;2021173;29;20076;-94
2021/09/05 02:35:43;;;;;;;7.68;3.78;;;15.10;79.00;;;;;;2028020;29;20040;-95
2021/09/05 02:37:03;;;;;;;7.85;4.40;;;15.10;79.10;;;;;;2016047;29;20029;-95
2021/09/05 02:38:24;;;;;;;7.93;4.20;;;15.10;79.10;;;;;;2015761;29;20044;-93
2021/09/05 02:39:43;;;;;;;;;;;15.10;79.00;;;;;;2012271;29;20053;-94
2021/09/05 02:41:03;;;;;;;7.70;4.43;;;15.10;79.00;;;;;;2023863;29;19915;-95
2021/09/05 02:42:22;;;;;;;6.43;3.72;;;15.10;79.00;;;;;;2021355;29;20539;-94
2021/09/05 02:43:41;;;;;;;7.60;4.18;;;15.10;79.00;;;;;;2014936;29;20059;-95
2021/09/05 02:45:05;;;;;;;7.22;4.03;;;15.10;79.00;;;;;;2025599;29;20044;-94
2021/09/05 02:46:24;;;;;;;7.38;4.13;;;15.10;79.10;;;;;;2019785;29;20024;-94
2021/09/05 02:47:44;;;;;;;6.93;4.05;;;15.10;79.10;;;;;;2027739;29;20040;-94
2021/09/05 02:49:03;;;;;;;7.03;3.88;;;15.10;79.10;;;;;;2016502;29;20049;-94
2021/09/05 02:50:22;;;;;;;8.32;4.60;;;15.10;79.10;;;;;;2028546;29;20044;-95
2021/09/05 02:51:42;;;;;;;7.45;4.28;;;15.10;79.10;;;;;;2013867;29;20078;-95
2021/09/05 02:53:02;;;;;;;6.47;4.20;;;15.10;79.10;;;;;;2019583;29;20422;-95
2021/09/05 02:54:21;;;;;;;7.38;4.03;;;15.00;79.70;;;;;;2026927;29;20044;-94
2021/09/05 02:55:40;;;;;;;6.90;3.92;;;15.10;79.10;;;;;;2024695;29;20041;-94
2021/09/05 02:56:59;;;;;;;6.97;4.00;;;15.10;79.20;;;;;;2013923;29;20064;-95
2021/09/05 02:58:19;;;;;;;7.22;4.28;;;15.10;79.10;;;;;;2023391;29;20083;-94
2021/09/05 02:59:38;;;;;;;8.52;4.50;;;15.10;79.10;;;;;;2012486;29;20674;-95
2021/09/05 03:00:57;;;;;;;7.15;4.35;;;15.10;79.10;;;;;;2015888;29;20049;-95
2021/09/05 03:02:17;;;;;;;8.82;4.40;;;15.10;79.70;;;;;;2022611;29;20059;-94
2021/09/05 03:03:36;;;;;;;8.05;4.35;;;15.10;79.20;;;;;;2018193;29;20133;-95
2021/09/05 03:04:56;;;;;;;5.70;3.83;;;15.10;79.20;;;;;;2024540;29;20040;-94
2021/09/05 03:06:17;;;;;;;7.78;4.00;;;15.00;79.10;;;;;;2028907;29;20048;-94
2021/09/05 03:07:36;;;;;;;7.30;3.90;;;15.00;79.20;;;;;;2023276;29;20041;-95
2021/09/05 03:08:56;;;;;;;8.85;4.85;;;15.00;79.20;;;;;;2026553;29;20036;-95
2021/09/05 03:10:15;;;;;;;6.68;4.30;;;15.00;79.20;;;;;;2020490;29;20037;-94
2021/09/05 03:11:34;;;;;;;7.70;4.40;;;15.00;79.20;;;;;;2022644;29;20048;-95
2021/09/05 03:12:54;;;;;;;7.75;4.47;;;15.00;79.20;;;;;;2030373;29;20024;-95
2021/09/05 03:14:13;;;;;;;7.25;4.10;;;15.00;79.30;;;;;;2023058;29;20049;-94
2021/09/05 03:15:33;;;;;;;8.73;4.55;;;14.90;79.20;;;;;;2021106;29;20037;-94
2021/09/05 03:16:53;;;;;;;6.07;4.10;;;14.90;79.30;;;;;;2020192;29;20045;-94
2021/09/05 03:18:12;;;;;;;8.60;4.78;;;14.90;79.40;;;;;;2018655;29;20049;-94
2021/09/05 03:19:31;;;;;;;8.00;4.53;;;14.90;79.40;;;;;;2013435;29;20507;-92
2021/09/05 03:20:51;;;;;;;8.80;4.90;;;14.90;79.50;;;;;;2009970;29;20045;-94
2021/09/05 03:22:10;;;;;;;6.78;4.07;;;14.80;79.40;;;;;;2024516;29;20451;-93
2021/09/05 03:23:29;;;;;;;7.43;4.43;;;14.80;79.50;;;;;;2028882;29;20033;-94
2021/09/05 03:24:49;;;;;;;9.57;5.20;;;14.80;79.60;;;;;;2020218;29;20037;-95
2021/09/05 03:26:08;;;;;;;7.43;4.53;;;14.70;79.60;;;;;;2020975;29;20044;-93
2021/09/05 03:27:27;;;;;;;8.07;4.65;;;14.70;79.70;;;;;;2020844;29;20044;-95
2021/09/05 03:28:47;;;;;;;8.32;5.20;;;14.70;79.70;;;;;;2014151;29;20041;-95
2021/09/05 03:30:07;;;;;;;9.43;4.60;;;14.70;79.90;;;;;;2028317;29;20024;-95
2021/09/05 03:31:28;;;;;;;7.50;4.63;;;14.60;79.80;;;;;;2039920;29;20039;-94
2021/09/05 03:32:47;;;;;;;6.95;4.45;;;14.60;79.90;;;;;;2020786;29;20092;-94
2021/09/05 03:34:06;;;;;;;6.70;4.18;;;14.60;79.90;;;;;;2027089;29;20044;-94
2021/09/05 03:35:26;;;;;;;7.20;4.38;;;14.60;80.00;;;;;;2029927;29;20032;-95
2021/09/05 03:36:46;;;;;;;7.40;4.60;;;14.60;80.00;;;;;;2029636;29;20053;-94
2021/09/05 03:38:06;;;;;;;7.95;4.80;;;14.60;80.00;;;;;;2024969;29;20045;-94
2021/09/05 03:39:25;;;;;;;7.00;4.50;;;14.50;80.00;;;;;;2034028;29;20028;-95
2021/09/05 03:40:45;;;;;;;7.88;4.55;;;14.50;80.10;;;;;;2020488;29;20041;-94
2021/09/05 03:42:04;;;;;;;6.72;4.38;;;14.50;80.20;;;;;;2036070;28;20035;-94
2021/09/05 03:43:24;;;;;;;7.72;5.15;;;14.50;80.20;;;;;;2040137;28;20044;-94
2021/09/05 03:44:44;;;;;;;7.07;4.72;;;14.50;80.20;;;;;;2033878;29;20017;-90
2021/09/05 03:46:03;;;;;;;8.23;4.70;;;14.50;80.30;;;;;;2031044;28;20040;-94
2021/09/05 03:47:24;;;;;;;8.27;4.93;;;14.40;80.30;;;;;;2029670;29;20035;-95
2021/09/05 03:48:44;;;;;;;8.48;4.88;;;14.40;80.40;;;;;;2018474;29;20045;-94
2021/09/05 03:50:04;;;;;;;8.40;4.90;;;14.40;80.40;;;;;;2019639;29;20037;-93
2021/09/05 03:51:23;;;;;;;8.18;4.95;;;14.40;80.50;;;;;;2023996;29;20132;-93
2021/09/05 03:52:44;;;;;;;7.63;4.68;;;14.40;80.50;;;;;;2025691;29;20048;-94
2021/09/05 03:54:03;;;;;;;9.70;5.18;;;14.40;80.50;;;;;;2020212;29;20491;-94
2021/09/05 03:55:23;;;;;;;7.70;4.80;;;14.30;80.50;;;;;;2014281;29;20096;-94
2021/09/05 03:56:43;;;;;;;8.40;4.88;;;14.40;80.60;;;;;;2024512;29;20802;-94
2021/09/05 03:58:03;;;;;;;9.55;4.88;;;14.40;80.60;;;;;;2024554;29;20052;-94
2021/09/05 03:59:23;;;;;;;8.05;4.47;;;14.40;80.60;;;;;;2021130;29;20036;-94
2021/09/05 04:00:42;;;;;;;8.45;4.32;;;14.30;80.60;;;;;;2018767;29;20056;-93
2021/09/05 04:02:02;;;;;;;7.88;4.47;;;14.30;80.60;;;;;;2023836;29;20041;-94
2021/09/05 04:03:23;;;;;;;8.30;4.75;;;14.30;80.60;;;;;;2017268;29;20068;-94
2021/09/05 04:04:43;;;;;;;7.63;4.75;;;14.30;80.70;;;;;;2020140;29;20072;-95
2021/09/05 04:06:03;;;;;;;7.97;4.55;;;14.30;80.70;;;;;;2019164;29;20773;-94
2021/09/05 04:07:22;;;;;;;8.30;4.72;;;14.30;80.70;;;;;;2021907;29;20037;-94
2021/09/05 04:08:42;;;;;;;7.30;4.43;;;14.30;80.80;;;;;;2020497;29;20048;-95
2021/09/05 04:10:08;;;;;;;9.60;4.45;;;14.30;80.80;;;;;;2030814;29;20040;-94
2021/09/05 04:11:28;;;;;;;6.82;4.32;;;14.30;80.80;;;;;;2027509;29;20045;-94
2021/09/05 04:12:47;;;;;;;7.90;4.72;;;14.30;80.80;;;;;;2034692;29;20039;-94
2021/09/05 04:14:06;;;;;;;6.90;4.35;;;14.30;80.80;;;;;;2034600;29;20041;-93
2021/09/05 04:15:26;;;;;;;7.25;4.25;;;14.30;80.80;;;;;;2031388;29;20021;-92
2021/09/05 04:16:46;;;;;;;7.63;4.30;;;14.30;80.90;;;;;;2038611;29;20131;-94
2021/09/05 04:18:05;;;;;;;6.45;3.97;;;14.30;80.90;;;;;;2019387;29;20033;-94
2021/09/05 04:19:24;;;;;;;6.93;3.97;;;14.30;80.90;;;;;;2024125;29;20094;-93
2021/09/05 04:20:44;;;;;;;7.70;4.50;;;14.30;81.00;;;;;;2025566;29;20029;-93
2021/09/05 04:22:04;;;;;;;7.22;4.43;;;14.30;81.00;;;;;;2036815;28;20072;-94
2021/09/05 04:23:24;;;;;;;6.97;4.45;;;14.20;81.00;;;;;;2023677;29;20137;-94
2021/09/05 04:24:44;;;;;;;7.35;3.80;;;14.30;81.10;;;;;;2016801;29;20037;-94
2021/09/05 04:26:03;;;;;;;7.20;3.83;;;14.20;81.10;;;;;;2028118;29;20052;-94
2021/09/05 04:27:22;;;;;;;7.45;4.20;;;14.20;81.20;;;;;;2041002;29;20036;-94
2021/09/05 04:28:41;;;;;;;7.93;4.43;;;14.20;81.80;;;;;;2024713;29;20049;-94
2021/09/05 04:30:01;;;;;;;7.25;4.88;;;14.20;81.30;;;;;;2026364;29;20174;-94
2021/09/05 04:31:20;;;;;;;7.97;4.85;;;14.10;81.20;;;;;;2014040;29;20423;-95
2021/09/05 04:32:40;;;;;;;8.07;4.70;;;14.20;81.30;;;;;;2024414;29;20020;-94
2021/09/05 04:33:59;;;;;;;9.10;4.63;;;14.20;81.40;;;;;;2021540;29;20033;-94
2021/09/05 04:35:19;;;;;;;6.50;4.35;;;14.10;81.40;;;;;;2027796;29;20403;-94
2021/09/05 04:36:38;;;;;;;7.22;4.30;;;14.10;81.30;;;;;;2030120;29;20036;-94
2021/09/05 04:37:57;;;;;;;7.30;4.55;;;14.10;81.30;;;;;;2029009;29;20099;-94
2021/09/05 04:39:17;;;;;;;7.60;4.68;;;14.10;81.40;;;;;;2024094;29;20045;-94
2021/09/05 04:40:36;;;;;;;7.13;4.35;;;14.10;81.40;;;;;;2019230;29;20036;-93
2021/09/05 04:41:56;;;;;;;8.32;4.68;;;14.10;81.50;;;;;;2010270;29;20057;-95
2021/09/05 04:43:16;;;;;;;8.10;4.45;;;14.10;81.50;;;;;;2024627;29;20032;-95
2021/09/05 04:44:36;;;;;;;8.98;4.93;;;14.10;81.50;;;;;;2018461;29;20045;-95
2021/09/05 04:45:56;;;;;;;6.93;4.22;;;14.00;81.50;;;;;;2027337;29;20131;-96
2021/09/05 04:47:16;;;;;;;6.25;4.10;;;14.00;81.50;;;;;;2040191;28;20044;-96
2021/09/05 04:48:35;;;;;;;7.63;4.22;;;14.00;81.50;;;;;;2034414;29;20104;-96
2021/09/05 04:49:54;;;;;;;7.57;4.28;;;14.00;81.60;;;;;;2033606;29;20065;-94
2021/09/05 04:51:14;;;;;;;7.75;4.78;;;14.00;81.50;;;;;;2033842;29;20036;-94
2021/09/05 04:52:33;;;;;;;7.82;4.72;;;14.00;81.60;;;;;;2030655;29;20040;-95
2021/09/05 04:53:52;;;;;;;7.57;4.55;;;13.90;81.60;;;;;;2017600;29;20079;-95
2021/09/05 04:55:12;;;;;;;8.13;4.93;;;14.00;81.60;;;;;;2016224;29;20032;-95
2021/09/05 04:56:31;;;;;;;8.20;5.05;;;13.90;81.60;;;;;;2023461;29;20056;-95
2021/09/05 04:57:50;;;;;;;7.05;4.43;;;13.90;81.60;;;;;;2012970;29;20045;-94
2021/09/05 04:59:09;;;;;;;7.68;4.65;;;13.90;81.60;;;;;;2022012;29;20048;-95
2021/09/05 05:00:29;;;;;;;7.65;4.70;;;13.90;81.70;;;;;;2016424;29;20439;-94
2021/09/05 05:01:48;;;;;;;8.68;4.68;;;13.90;81.70;;;;;;2025187;29;20029;-94
2021/09/05 05:03:07;;;;;;;8.38;5.03;;;13.90;81.70;;;;;;2026502;29;20048;-96
2021/09/05 05:04:27;;;;;;;8.43;4.85;;;13.90;81.80;;;;;;2029731;29;20427;-94
2021/09/05 05:05:46;;;;;;;8.27;4.95;;;13.80;81.70;;;;;;2016099;29;20049;-95
2021/09/05 05:07:06;;;;;;;8.05;4.72;;;13.90;81.80;;;;;;2024188;29;20040;-94
2021/09/05 05:08:25;;;;;;;8.25;4.93;;;13.80;81.80;;;;;;2013510;29;20049;-93
2021/09/05 05:09:45;;;;;;;9.27;5.45;;;13.80;81.80;;;;;;2025104;29;20036;-95
2021/09/05 05:11:04;;;;;;;10.27;6.07;;;13.70;81.80;;;;;;2014750;29;20112;-94
2021/09/05 05:12:23;;;;;;;9.50;5.53;;;13.70;81.90;;;;;;2017662;29;20036;-94
2021/09/05 05:13:43;;;;;;;9.38;5.38;;;13.70;82.00;;;;;;2010635;29;20040;-93
2021/09/05 05:15:03;;;;;;;10.00;5.10;;;13.70;82.20;;;;;;2019362;29;20067;-94
2021/09/05 05:16:22;;;;;;;9.15;5.80;;;13.60;82.20;;;;;;2020310;29;20056;-94
2021/09/05 05:17:41;;;;;;;10.60;5.65;;;13.60;82.10;;;;;;2026496;29;20040;-94
2021/09/05 05:19:01;;;;;;;9.65;5.10;;;13.60;82.20;;;;;;2025363;29;20045;-95
2021/09/05 05:20:21;;;;;;;8.50;4.78;;;13.60;82.20;;;;;;2019892;29;20036;-96
2021/09/05 05:21:41;;;;;;;9.40;5.68;;;13.60;82.20;;;;;;2028523;29;20043;-96
2021/09/05 05:23:01;;;;;;;10.27;5.30;;;13.60;82.20;;;;;;2024671;29;20032;-94
2021/09/05 05:24:20;;;;;;;8.25;5.25;;;13.60;82.20;;;;;;2026612;29;20068;-95
2021/09/05 05:25:41;;;;;;;9.95;5.47;;;13.60;82.20;;;;;;2025020;29;20032;-94
2021/09/05 05:27:00;;;;;;;8.40;5.10;;;13.60;82.20;;;;;;2028098;29;20513;-94
2021/09/05 05:28:20;;;;;;;8.70;6.00;;;13.60;82.10;;;;;;2024221;29;20036;-95
2021/09/05 05:29:39;;;;;;;9.63;5.93;;;13.60;82.10;;;;;;2018809;29;20048;-94
2021/09/05 05:30:59;;;;;;;9.45;5.78;;;13.60;82.10;;;;;;2020017;29;20277;-94
2021/09/05 05:32:18;;;;;;;8.38;5.35;;;13.60;82.30;;;;;;2014068;29;20140;-95
2021/09/05 05:33:37;;;;;;;9.70;5.45;;;13.60;82.20;;;;;;2021301;29;20037;-94
2021/09/05 05:34:57;;;;;;;8.23;5.63;;;13.50;82.30;;;;;;2021231;29;20048;-95
2021/09/05 05:36:16;;;;;;;8.10;5.30;;;13.50;82.30;;;;;;2026389;29;20032;-94
2021/09/05 05:37:36;;;;;;;9.48;5.50;;;13.50;82.30;;;;;;2014757;29;20289;-95
2021/09/05 05:38:55;;;;;;;10.40;6.00;;;13.60;82.30;;;;;;2017405;29;20052;-94
2021/09/05 05:40:15;;;;;;;8.52;5.22;;;13.60;82.30;;;;;;2019182;29;20519;-94
2021/09/05 05:41:34;;;;;;;8.75;5.72;;;13.60;82.20;;;;;;2019152;29;20040;-95
2021/09/05 05:42:54;;;;;;;8.32;5.53;;;13.60;82.20;;;;;;2010614;29;20045;-95
2021/09/05 05:44:13;;;;;;;8.35;5.68;;;13.60;82.10;;;;;;2014502;29;20040;-94
2021/09/05 05:45:34;;;;;;;9.13;5.22;;;13.60;82.10;;;;;;2029418;29;20040;-95
2021/09/05 05:46:53;;;;;;;11.30;5.95;;;13.60;82.20;;;;;;2019012;29;20513;-94
2021/09/05 05:48:13;;;;;;;10.48;5.85;;;13.70;82.30;;;;;;2027228;29;20036;-94
2021/09/05 05:49:34;;;;;;;10.45;5.90;;;13.70;82.10;;;;;;2022512;29;20123;-95
2021/09/05 05:50:54;;;;;;;9.98;5.55;;;13.70;82.10;;;;;;2027377;29;20040;-94
2021/09/05 05:52:14;;;;;;;9.85;5.47;;;13.70;82.00;;;;;;2021822;29;20863;-95
2021/09/05 05:53:34;;;;;;;8.07;5.28;;;13.70;82.00;;;;;;2021064;29;20044;-94
2021/09/05 05:54:53;;;;;;;9.75;5.55;;;13.70;82.00;;;;;;2024667;29;20036;-94
2021/09/05 05:56:12;;;;;;;8.57;5.78;;;13.80;81.90;;;;;;2029739;29;20037;-94
2021/09/05 05:57:32;;;;;;;8.85;5.72;;;13.80;81.90;;;;;;2021921;29;20036;-94
2021/09/05 05:58:51;;;;;;;8.77;5.72;;;13.80;81.80;;;;;;2026726;29;20036;-94
2021/09/05 06:00:11;;;;;;;7.63;4.97;;;13.80;81.80;;;;;;2015708;29;20512;-94
2021/09/05 06:01:31;;;;;;;10.13;5.80;;;13.80;81.80;;;;;;2026722;29;20047;-95
2021/09/05 06:02:52;;;;;;;9.05;5.38;;;13.80;81.70;;;;;;2020108;29;20044;-95
2021/09/05 06:04:11;;;;;;;9.57;5.40;;;13.90;81.80;;;;;;2027165;29;20043;-95
2021/09/05 06:05:30;;;;;;;8.32;5.28;;;13.90;81.70;;;;;;2022981;29;20415;-95
2021/09/05 06:06:49;;;;;;;7.60;5.03;;;13.90;81.60;;;;;;2027944;29;20108;-95
2021/09/05 06:08:09;;;;;;;9.35;5.20;;;13.90;81.60;;;;;;2020399;29;20516;-94
2021/09/05 06:09:28;;;;;;;7.90;4.85;;;14.00;81.60;;;;;;2020052;29;20036;-94
2021/09/05 06:10:47;;;;;;;11.07;6.00;;;14.00;81.50;;;;;;2013911;29;20045;-93
2021/09/05 06:12:08;;;;;;;10.38;5.78;;;14.00;81.40;;;;;;2023108;29;20043;-94
2021/09/05 06:13:28;;;;;;;9.82;5.95;;;14.00;81.40;;;;;;2017163;29;20561;-93
2021/09/05 06:14:47;;;;;;;12.57;6.25;;;14.00;81.40;;;;;;2015637;29;20040;-93
2021/09/05 06:16:07;;;;;;;11.45;6.22;;;14.00;81.40;;;;;;2026785;29;20040;-93
2021/09/05 06:17:26;;;;;;;8.30;5.38;;;14.00;81.50;;;;;;2013008;29;20045;-92
2021/09/05 06:18:46;;;;;;;10.05;6.03;;;14.00;81.50;;;;;;2023221;29;20518;-94
2021/09/05 06:20:08;;;;;;;9.77;5.82;;;14.00;81.50;;;;;;2023311;29;20526;-92
2021/09/05 06:21:28;;;;;;;10.43;6.70;;;14.00;81.50;;;;;;2026484;29;20495;-93
2021/09/05 06:22:47;;;;;;;11.02;6.15;;;14.10;81.50;;;;;;2029822;29;20123;-93
2021/09/05 06:24:07;;;;;;;9.40;6.15;;;14.10;81.50;;;;;;2013405;29;20037;-93
2021/09/05 06:25:26;;;;;;;8.32;5.45;;;14.10;81.50;;;;;;2016470;29;20040;-92
2021/09/05 06:26:45;;;;;;;9.38;5.78;;;14.10;81.50;;;;;;2007825;29;20049;-93
2021/09/05 06:28:05;;;;;;;10.00;5.78;;;14.10;81.50;;;;;;2026237;29;20048;-95
2021/09/05 06:29:24;;;;;;;9.15;5.55;;;14.10;81.40;;;;;;2032706;29;20028;-92
2021/09/05 06:30:44;;;;;;;8.70;5.30;;;14.20;81.40;;;;;;2015128;29;20049;-93
2021/09/05 06:32:03;;;;;;;11.25;5.68;;;14.20;81.30;;;;;;2031167;29;20060;-91
2021/09/05 06:33:23;;;;;;;9.00;5.25;;;14.20;81.30;;;;;;2020601;29;20046;-92
2021/09/05 06:34:42;;;;;;;7.72;4.78;;;14.20;81.30;;;;;;2023830;29;20044;-94
2021/09/05 06:36:02;;;;;;;9.23;5.22;;;14.30;81.30;;;;;;2021515;29;20080;-92
2021/09/05 06:37:22;;;;;;;10.77;5.20;;;14.30;81.30;;;;;;2026501;29;20048;-93
2021/09/05 06:38:42;;;;;;;8.45;5.13;;;14.30;81.20;;;;;;2028593;29;20056;-94
2021/09/05 06:40:01;;;;;;;10.13;5.05;;;14.30;81.20;;;;;;2030979;29;20044;-92
2021/09/05 06:41:21;;;;;;;7.82;4.72;;;14.40;81.80;;;;;;2030350;29;20044;-94
2021/09/05 06:42:40;;;;;;;9.60;5.40;;;14.40;81.10;;;;;;2030189;29;20100;-93
2021/09/05 06:44:00;;;;;;;10.23;6.30;;;14.40;81.00;;;;;;2014193;29;20270;-94
2021/09/05 06:45:28;;;;;;;10.55;6.05;;;14.40;81.00;;;;;;2016004;29;20037;-96
2021/09/05 06:46:47;;;;;;;9.98;6.30;;;14.40;80.90;;;;;;2022418;29;20048;-94
2021/09/05 06:48:10;;;;;;;11.32;6.05;;;14.50;81.00;;;;;;2015516;29;20049;-95
2021/09/05 06:49:29;;;;;;;10.30;5.68;;;14.50;81.00;;;;;;2010112;29;20045;-92
2021/09/05 06:50:48;;;;;;;10.95;6.50;;;14.50;81.00;;;;;;2013587;29;20041;-92
2021/09/05 06:52:08;;;;;;;10.23;6.05;;;14.50;80.90;;;;;;2013782;29;20528;-93
2021/09/05 06:53:27;;;;;;;11.38;6.30;;;14.50;80.80;;;;;;2012945;29;20037;-93
2021/09/05 06:54:46;;;;;;;9.77;5.80;;;14.50;80.80;;;;;;2010464;29;20058;-93